Time;durP1;ratioP1;P1;durP2;ratioP2;P2;SDS_P1;SDS_P2;PMS_P1;PMS_P2;Temp;Humidity;BMP_temperature;BMP_pressure;BME280_temperature;BME280_humidity;BME280_pressure;Samples;Min_cycle;Max_cycle;Signal;HPM_P1;HPM_P2
2023/01/06 00:02:01;;;;;;;1.40;1.27;;;;;;;9.01;100.00;98790.88;5071918;28;20235;-78
2023/01/06 00:04:27;;;;;;;1.30;1.20;;;;;;;9.13;100.00;98791.06;5071922;28;20222;-78
2023/01/06 00:06:54;;;;;;;1.37;1.20;;;;;;;9.27;100.00;98787.72;5071937;28;20591;-78
2023/01/06 00:09:20;;;;;;;1.57;1.13;;;;;;;9.41;100.00;98790.44;5071224;28;20210;-78
2023/01/06 00:11:48;;;;;;;1.50;1.30;;;;;;;9.49;100.00;98777.72;5085703;22;20246;-75
2023/01/06 00:14:15;;;;;;;2.03;1.10;;;;;;;9.53;100.00;98781.88;5051873;28;20825;-76
2023/01/06 00:16:41;;;;;;;1.30;1.10;;;;;;;9.54;100.00;98771.22;5051418;28;20700;-75
2023/01/06 00:19:10;;;;;;;1.37;1.27;;;;;;;9.53;100.00;98774.81;5050918;28;20230;-75
2023/01/06 00:21:37;;;;;;;1.30;0.93;;;;;;;9.61;100.00;98766.47;5051687;28;20212;-75
2023/01/06 00:24:04;;;;;;;2.30;1.13;;;;;;;9.68;100.00;98762.56;5051575;28;20214;-75
2023/01/06 00:26:30;;;;;;;1.77;1.10;;;;;;;9.75;100.00;98758.63;5051858;28;20211;-75
2023/01/06 00:28:58;;;;;;;1.40;1.20;;;;;;;9.78;100.00;98748.75;5050925;28;20888;-77
2023/01/06 00:31:24;;;;;;;1.20;1.10;;;;;;;9.78;100.00;98750.56;5051615;28;20233;-76
2023/01/06 00:33:55;;;;;;;1.90;1.23;;;;;;;9.81;100.00;98753.00;5051518;28;20228;-76
2023/01/06 00:36:21;;;;;;;1.50;1.20;;;;;;;9.80;100.00;98751.31;5051719;28;20216;-76
2023/01/06 00:38:49;;;;;;;1.27;1.10;;;;;;;9.78;100.00;98751.41;5050570;28;20229;-75
2023/01/06 00:44:02;;;;;;;1.03;0.97;;;;;;;9.72;100.00;98737.72;5051583;28;20689;-76
2023/01/06 00:46:29;;;;;;;0.93;0.80;;;;;;;9.66;100.00;98738.06;5051369;28;20245;-76
2023/01/06 00:48:56;;;;;;;1.50;1.10;;;;;;;9.57;100.00;98744.69;5050640;28;20208;-76
2023/01/06 00:51:23;;;;;;;3.33;1.20;;;;;;;9.48;100.00;98733.78;5050844;28;20671;-76
2023/01/06 00:53:49;;;;;;;1.33;1.00;;;;;;;9.44;100.00;98742.81;5051344;28;20321;-76
2023/01/06 00:56:18;;;;;;;3.50;1.03;;;;;;;9.41;100.00;98737.69;5051320;28;20228;-76
2023/01/06 00:58:45;;;;;;;1.93;1.10;;;;;;;9.36;100.00;98739.75;5050734;28;20240;-75
2023/01/06 01:01:13;;;;;;;1.47;1.00;;;;;;;9.32;100.00;98746.13;5050871;28;20207;-77
2023/01/06 01:03:39;;;;;;;1.83;1.10;;;;;;;9.28;100.00;98748.06;5050896;28;20233;-76
2023/01/06 01:06:08;;;;;;;1.90;1.10;;;;;;;9.22;100.00;98742.25;5051489;28;20225;-76
2023/01/06 01:08:35;;;;;;;2.10;1.40;;;;;;;9.27;100.00;98741.09;5051540;28;20211;-76
2023/01/06 01:11:03;;;;;;;2.33;1.07;;;;;;;9.31;100.00;98744.41;5050996;28;20675;-76
2023/01/06 01:13:30;;;;;;;1.30;1.10;;;;;;;9.32;100.00;98748.75;5051251;28;20247;-76
2023/01/06 01:15:56;;;;;;;1.40;1.30;;;;;;;9.37;100.00;98749.34;5051246;28;20215;-76
2023/01/06 01:18:24;;;;;;;1.20;1.03;;;;;;;9.40;100.00;98741.25;5050695;28;20228;-76
2023/01/06 01:20:51;;;;;;;1.87;1.20;;;;;;;9.40;100.00;98743.91;5050180;28;20223;-77
2023/01/06 01:23:17;;;;;;;1.33;1.03;;;;;;;9.38;100.00;98743.13;5051014;28;20567;-76
2023/01/06 01:25:44;;;;;;;1.43;1.10;;;;;;;9.38;100.00;98743.13;5051160;28;20211;-77
2023/01/06 01:28:10;;;;;;;2.40;1.07;;;;;;;9.32;100.00;98743.47;5051789;28;20207;-76
2023/01/06 01:30:37;;;;;;;1.00;0.90;;;;;;;9.29;100.00;98751.53;5054397;28;20667;-76
2023/01/06 01:33:03;;;;;;;1.13;1.03;;;;;;;9.22;100.00;98750.16;5055326;28;20236;-75
2023/01/06 01:35:31;;;;;;;1.53;1.10;;;;;;;9.21;100.00;98738.78;5055200;28;20231;-75
2023/01/06 01:37:57;;;;;;;1.40;1.27;;;;;;;9.21;100.00;98738.78;5055139;28;20211;-76
2023/01/06 01:40:24;;;;;;;1.23;1.10;;;;;;;9.23;100.00;98736.91;5054298;28;20208;-76
2023/01/06 01:42:50;;;;;;;1.50;1.40;;;;;;;9.30;100.00;98738.28;5054853;28;20238;-77
2023/01/06 01:45:23;;;;;;;2.03;1.20;;;;;;;9.37;100.00;98730.88;5054690;28;20206;-76
2023/01/06 01:47:53;;;;;;;1.40;1.27;;;;;;;9.37;100.00;98731.72;5054971;28;20215;-76
2023/01/06 01:50:30;;;;;;;1.03;0.93;;;;;;;9.39;100.00;98729.88;5053730;28;20213;-76
2023/01/06 01:53:04;;;;;;;1.20;0.90;;;;;;;9.36;100.00;98724.75;5054862;28;20235;-76
2023/01/06 01:55:32;;;;;;;1.40;1.30;;;;;;;9.40;100.00;98720.16;5054770;28;20645;-76
2023/01/06 01:58:01;;;;;;;1.17;1.00;;;;;;;9.41;100.00;98719.22;5054383;28;20690;-76
2023/01/06 02:00:28;;;;;;;1.30;1.10;;;;;;;9.37;100.00;98722.97;5051619;28;20241;-76
2023/01/06 02:02:55;;;;;;;2.00;1.07;;;;;;;9.42;100.00;98728.84;5054634;28;20231;-76
2023/01/06 02:05:24;;;;;;;1.50;1.00;;;;;;;9.37;100.00;98721.16;5054469;28;20737;-76
2023/01/06 02:07:51;;;;;;;1.00;1.00;;;;;;;9.36;100.00;98722.13;5054322;28;20213;-76
2023/01/06 02:10:21;;;;;;;1.07;0.97;;;;;;;9.35;100.00;98725.69;5053371;28;20212;-76
2023/01/06 02:12:52;;;;;;;1.20;1.10;;;;;;;9.34;100.00;98720.50;5054031;28;20691;-76
2023/01/06 02:15:21;;;;;;;1.70;1.07;;;;;;;9.35;100.00;98711.63;5054345;28;20218;-75
2023/01/06 02:18:04;;;;;;;1.20;0.90;;;;;;;9.34;100.00;98731.03;5054147;28;20696;-76
2023/01/06 02:20:54;;;;;;;1.50;0.90;;;;;;;9.32;100.00;98725.00;5053419;28;20217;-76
2023/01/06 02:23:55;;;;;;;1.93;0.93;;;;;;;9.31;100.00;98723.31;5054247;28;20235;-76
2023/01/06 02:27:04;;;;;;;1.03;1.00;;;;;;;9.30;100.00;98708.44;5053902;28;20207;-76
2023/01/06 02:30:21;;;;;;;1.27;1.17;;;;;;;9.27;100.00;98713.84;5052993;28;20206;-76
2023/01/06 02:33:06;;;;;;;2.77;1.50;;;;;;;9.29;100.00;98712.84;5053904;28;20235;-76
2023/01/06 02:35:47;;;;;;;1.83;1.60;;;;;;;9.29;100.00;98717.25;5053805;28;20565;-76
2023/01/06 02:38:26;;;;;;;2.50;1.63;;;;;;;9.26;100.00;98709.53;5053982;28;20238;-76
2023/01/06 02:41:12;;;;;;;4.00;2.20;;;;;;;9.25;100.00;98711.28;5052734;28;20303;-76
2023/01/06 02:43:49;;;;;;;3.67;2.07;;;;;;;9.23;100.00;98713.16;5053752;28;20238;-77
2023/01/06 02:46:26;;;;;;;2.37;1.77;;;;;;;9.21;100.00;98708.91;5053939;28;20215;-76
2023/01/06 02:49:09;;;;;;;2.23;1.97;;;;;;;9.14;100.00;98708.41;5053114;28;20208;-75
2023/01/06 02:51:45;;;;;;;2.33;1.87;;;;;;;9.16;100.00;98700.41;5053733;28;20303;-76
2023/01/06 02:54:19;;;;;;;2.10;1.67;;;;;;;9.17;100.00;98704.75;5053368;28;20211;-76
2023/01/06 02:56:51;;;;;;;3.13;1.90;;;;;;;9.24;100.00;98703.50;5053854;28;20218;-76
2023/01/06 02:59:23;;;;;;;2.43;1.77;;;;;;;9.28;100.00;98699.72;5052893;28;20410;-76
2023/01/06 03:01:53;;;;;;;2.63;1.90;;;;;;;9.31;100.00;98695.13;5053383;28;20234;-76
2023/01/06 03:04:26;;;;;;;3.13;2.57;;;;;;;9.35;100.00;98687.91;5053301;28;20215;-76
2023/01/06 03:06:56;;;;;;;3.17;1.87;;;;;;;9.36;100.00;98697.53;5053624;28;20193;-76
2023/01/06 03:09:28;;;;;;;2.03;1.80;;;;;;;9.36;100.00;98703.66;5052431;28;20216;-77
2023/01/06 03:11:55;;;;;;;2.97;1.90;;;;;;;9.34;100.00;98705.53;5053268;28;20593;-76
2023/01/06 03:14:25;;;;;;;2.10;1.90;;;;;;;9.28;100.00;98702.38;5053171;28;20287;-76
2023/01/06 03:16:52;;;;;;;2.37;1.60;;;;;;;9.23;100.00;98704.44;5053158;28;20221;-76
2023/01/06 03:19:18;;;;;;;2.47;1.90;;;;;;;9.26;100.00;98706.88;5052077;28;20260;-76
2023/01/06 03:21:48;;;;;;;2.97;1.90;;;;;;;9.19;100.00;98700.25;5053086;28;20208;-76
2023/01/06 03:24:16;;;;;;;2.43;1.90;;;;;;;9.15;100.00;98693.44;5052765;28;20222;-76
2023/01/06 03:26:44;;;;;;;3.43;1.97;;;;;;;9.13;100.00;98697.94;5053050;28;20227;-76
2023/01/06 03:29:15;;;;;;;2.17;1.80;;;;;;;9.10;100.00;98696.31;5052091;28;20600;-76
2023/01/06 03:31:52;;;;;;;3.27;2.50;;;;;;;9.13;100.00;98684.75;5052628;28;20214;-76
2023/01/06 03:34:26;;;;;;;3.00;1.80;;;;;;;9.14;100.00;98686.44;5052893;28;20209;-76
2023/01/06 03:37:04;;;;;;;1.93;1.60;;;;;;;9.11;100.00;98681.38;5052826;28;20216;-75
2023/01/06 03:39:36;;;;;;;3.33;1.93;;;;;;;9.07;100.00;98679.81;5051908;28;20606;-76
2023/01/06 03:45:09;;;;;;;2.77;2.13;;;;;;;8.78;100.00;98683.16;5052523;28;20335;-76
2023/01/06 03:47:47;;;;;;;3.77;2.03;;;;;;;8.74;100.00;98681.63;5052671;28;20284;-77
2023/01/06 03:50:21;;;;;;;2.60;1.90;;;;;;;8.55;100.00;98686.16;5051380;28;20216;-75
2023/01/06 03:52:55;;;;;;;2.10;1.90;;;;;;;8.40;100.00;98686.97;5051932;28;20233;-76
2023/01/06 03:55:30;;;;;;;4.93;2.10;;;;;;;8.26;100.00;98692.09;5052467;28;20583;-76
2023/01/06 03:57:58;;;;;;;3.77;1.80;;;;;;;8.21;100.00;98696.75;5052422;28;20232;-76
2023/01/06 04:00:28;;;;;;;2.37;2.03;;;;;;;8.17;100.00;98696.00;5051434;28;20251;-76
2023/01/06 04:02:55;;;;;;;3.07;2.07;;;;;;;8.11;100.00;98695.47;5052097;28;20239;-76
2023/01/06 04:05:24;;;;;;;3.03;2.47;;;;;;;8.08;100.00;98693.00;5052140;28;20211;-75
2023/01/06 04:07:52;;;;;;;2.90;2.33;;;;;;;7.95;100.00;98686.66;5052057;28;20218;-76
2023/01/06 04:10:21;;;;;;;3.10;2.57;;;;;;;7.94;100.00;98693.69;5051190;28;20212;-76
2023/01/06 04:12:47;;;;;;;3.23;2.27;;;;;;;7.90;100.00;98691.28;5051769;28;20244;-76
2023/01/06 04:15:16;;;;;;;4.97;2.57;;;;;;;7.86;100.00;98684.47;5051935;28;20208;-75
2023/01/06 04:17:43;;;;;;;4.60;2.57;;;;;;;7.81;100.00;98682.06;5051812;28;20219;-76
2023/01/06 04:20:13;;;;;;;3.13;2.30;;;;;;;7.79;100.00;98683.06;5051120;28;20600;-77
2023/01/06 04:22:40;;;;;;;3.57;2.63;;;;;;;7.80;100.00;98685.63;5051989;28;20234;-76
2023/01/06 04:25:09;;;;;;;3.53;2.90;;;;;;;7.87;100.00;98696.69;5051819;28;20592;-76
2023/01/06 04:27:36;;;;;;;4.67;2.97;;;;;;;8.01;100.00;98699.47;5051945;28;20278;-76
2023/01/06 04:30:02;;;;;;;4.23;2.80;;;;;;;8.14;100.00;98696.16;5051096;28;20232;-75
2023/01/06 04:32:29;;;;;;;5.00;2.63;;;;;;;8.15;100.00;98691.75;5051943;28;20233;-76
2023/01/06 04:34:55;;;;;;;2.50;2.20;;;;;;;8.15;100.00;98687.31;5051605;28;20211;-77
2023/01/06 04:37:22;;;;;;;3.43;2.60;;;;;;;8.17;100.00;98687.25;5051692;28;20237;-77
2023/01/06 04:39:49;;;;;;;3.50;2.50;;;;;;;8.27;100.00;98685.91;5050707;28;20241;-76
2023/01/06 04:42:17;;;;;;;3.80;2.20;;;;;;;8.36;100.00;98677.50;5051405;28;20720;-77
2023/01/06 04:44:43;;;;;;;2.10;1.80;;;;;;;8.36;100.00;98675.75;5051551;28;20212;-76
2023/01/06 04:47:10;;;;;;;3.00;2.20;;;;;;;8.42;100.00;98679.81;5051431;28;20697;-76
2023/01/06 04:49:37;;;;;;;2.83;2.00;;;;;;;8.47;100.00;98677.81;5050717;28;20204;-75
2023/01/06 04:52:04;;;;;;;3.10;2.00;;;;;;;8.52;100.00;98674.00;5051233;28;20241;-76
2023/01/06 04:54:30;;;;;;;4.20;2.20;;;;;;;8.56;100.00;98682.63;5051289;28;20214;-76
2023/01/06 04:56:57;;;;;;;2.63;2.00;;;;;;;8.69;100.00;98675.75;5051206;28;20221;-76
2023/01/06 04:59:25;;;;;;;2.30;2.00;;;;;;;8.76;100.00;98669.22;5050586;28;20240;-76
2023/01/06 05:01:51;;;;;;;2.63;1.83;;;;;;;8.77;100.00;98665.66;5050919;28;20242;-76
2023/01/06 05:04:18;;;;;;;2.33;1.63;;;;;;;8.81;100.00;98662.75;5051294;28;20219;-76
2023/01/06 05:06:45;;;;;;;2.43;1.87;;;;;;;8.74;100.00;98660.53;5051096;28;20212;-76
2023/01/06 05:09:12;;;;;;;2.10;1.80;;;;;;;8.70;100.00;98661.66;5050333;28;20695;-76
2023/01/06 05:11:38;;;;;;;4.23;2.13;;;;;;;8.67;100.00;98651.25;5050762;28;20226;-76
2023/01/06 05:14:04;;;;;;;2.00;1.80;;;;;;;8.70;100.00;98659.00;5051263;28;20222;-76
2023/01/06 05:16:34;;;;;;;2.23;2.03;;;;;;;8.76;100.00;98656.03;5051107;28;20208;-75
2023/01/06 05:19:01;;;;;;;1.70;1.60;;;;;;;8.78;100.00;98659.44;5050241;28;20240;-76
2023/01/06 05:21:29;;;;;;;2.20;1.67;;;;;;;8.81;100.00;98657.50;5050778;28;20209;-76
2023/01/06 05:23:56;;;;;;;2.63;2.07;;;;;;;8.83;100.00;98649.50;5050913;28;20667;-76
2023/01/06 05:26:24;;;;;;;3.07;1.90;;;;;;;8.83;100.00;98660.91;5051079;28;20240;-76
2023/01/06 05:28:51;;;;;;;1.90;1.70;;;;;;;8.79;100.00;98655.88;5050408;28;20225;-76
2023/01/06 05:31:19;;;;;;;1.77;1.63;;;;;;;8.80;100.00;98661.06;5050914;28;20209;-77
2023/01/06 05:33:46;;;;;;;2.30;2.07;;;;;;;8.80;100.00;98654.94;5050987;28;20237;-76
2023/01/06 05:36:14;;;;;;;2.03;1.70;;;;;;;8.81;100.00;98651.38;5050801;28;20211;-76
2023/01/06 05:38:42;;;;;;;2.77;2.10;;;;;;;8.86;100.00;98649.31;5050861;28;20220;-76
2023/01/06 05:41:08;;;;;;;3.60;1.80;;;;;;;8.89;100.00;98657.09;5049990;28;20725;-76
2023/01/06 05:43:36;;;;;;;2.60;2.00;;;;;;;8.95;100.00;98657.63;5050904;28;20237;-76
2023/01/06 05:46:07;;;;;;;2.87;2.20;;;;;;;8.98;100.00;98659.22;5050836;28;20217;-77
2023/01/06 05:48:34;;;;;;;2.60;2.40;;;;;;;8.94;100.00;98653.25;5050825;28;20210;-76
2023/01/06 05:51:07;;;;;;;3.47;2.87;;;;;;;8.93;100.00;98650.72;5049510;28;20727;-77
2023/01/06 05:53:35;;;;;;;3.73;2.60;;;;;;;8.91;100.00;98658.72;5050861;28;20607;-76
2023/01/06 05:56:02;;;;;;;4.17;2.90;;;;;;;8.93;100.00;98656.00;5050822;28;20203;-76
2023/01/06 05:58:28;;;;;;;4.03;3.00;;;;;;;8.92;100.00;98638.44;5050540;28;20208;-76
2023/01/06 06:00:55;;;;;;;3.43;2.67;;;;;;;8.88;100.00;98647.47;5049790;28;20235;-76
2023/01/06 06:03:21;;;;;;;2.63;2.30;;;;;;;8.86;100.00;98642.28;5050534;28;20440;-76
2023/01/06 06:05:48;;;;;;;2.80;2.50;;;;;;;8.83;100.00;98644.25;5050423;28;20209;-77
2023/01/06 06:08:16;;;;;;;3.20;2.47;;;;;;;8.80;100.00;98647.03;5050873;28;20214;-76
2023/01/06 06:10:42;;;;;;;3.17;2.80;;;;;;;8.81;100.00;98651.38;5049682;28;20206;-76
2023/01/06 06:13:09;;;;;;;3.13;2.67;;;;;;;8.82;100.00;98651.28;5083928;22;20319;-79
2023/01/06 06:15:36;;;;;;;3.83;2.70;;;;;;;8.85;100.00;98658.16;5094252;28;20208;-79
2023/01/06 06:18:03;;;;;;;4.20;3.03;;;;;;;8.91;100.00;98636.75;5095581;28;20293;-76
2023/01/06 06:20:29;;;;;;;3.20;2.90;;;;;;;9.04;100.00;98648.31;5094004;28;20223;-79
2023/01/06 06:22:56;;;;;;;3.30;2.70;;;;;;;8.93;100.00;98648.09;5095266;28;20235;-79
2023/01/06 06:25:24;;;;;;;3.17;2.63;;;;;;;8.91;100.00;98655.22;5094612;28;20822;-79
2023/01/06 06:27:50;;;;;;;3.90;2.60;;;;;;;8.88;100.00;98658.03;5094299;28;20211;-79
2023/01/06 06:30:17;;;;;;;3.87;3.10;;;;;;;8.85;100.00;98656.41;5093609;28;20712;-77
2023/01/06 06:32:43;;;;;;;3.47;2.60;;;;;;;8.84;100.00;98667.88;5093904;28;20233;-77
2023/01/06 06:35:10;;;;;;;2.67;2.40;;;;;;;8.84;100.00;98667.03;5094032;28;20678;-79
2023/01/06 06:37:36;;;;;;;2.97;2.47;;;;;;;8.83;100.00;98658.28;5094280;28;20563;-77
2023/01/06 06:40:03;;;;;;;3.20;2.90;;;;;;;8.84;100.00;98657.34;5093625;28;20233;-79
2023/01/06 06:42:31;;;;;;;4.30;2.47;;;;;;;8.87;100.00;98662.44;5094018;28;20224;-77
2023/01/06 06:44:58;;;;;;;3.13;2.53;;;;;;;8.94;100.00;98657.69;5094213;28;20210;-77
2023/01/06 06:47:24;;;;;;;4.87;3.10;;;;;;;8.99;100.00;98660.94;5093793;28;20234;-77
2023/01/06 06:49:51;;;;;;;2.53;2.33;;;;;;;9.00;100.00;98662.63;5093074;28;20204;-77
2023/01/06 06:52:17;;;;;;;2.90;2.60;;;;;;;9.02;100.00;98666.03;5093831;28;20227;-77
2023/01/06 06:54:43;;;;;;;2.93;2.63;;;;;;;8.98;100.00;98665.34;5093922;28;20220;-77
2023/01/06 06:57:10;;;;;;;2.73;2.00;;;;;;;9.01;100.00;98664.31;5093680;28;20210;-77
2023/01/06 06:59:38;;;;;;;3.53;2.10;;;;;;;9.01;100.00;98666.97;5093117;28;20576;-77
2023/01/06 07:02:04;;;;;;;3.30;2.40;;;;;;;9.06;100.00;98667.56;5093478;28;20212;-77
2023/01/06 07:04:31;;;;;;;3.33;2.60;;;;;;;9.09;100.00;98677.94;5093776;28;20627;-77
2023/01/06 07:06:57;;;;;;;3.60;3.30;;;;;;;9.13;100.00;98674.22;5093548;28;20218;-76
2023/01/06 07:09:24;;;;;;;3.37;3.00;;;;;;;9.13;100.00;98679.47;5092681;28;20212;-77
2023/01/06 07:11:50;;;;;;;4.23;2.83;;;;;;;9.18;100.00;98693.28;5093380;28;20571;-76
2023/01/06 07:14:17;;;;;;;4.53;3.33;;;;;;;9.12;100.00;98689.16;5093195;28;20242;-76
2023/01/06 07:16:45;;;;;;;3.87;2.90;;;;;;;9.09;100.00;98699.03;5093073;28;20224;-75
2023/01/06 07:19:11;;;;;;;3.53;2.83;;;;;;;9.08;100.00;98703.47;5092730;28;20215;-74
2023/01/06 07:21:38;;;;;;;3.43;2.93;;;;;;;9.01;100.00;98706.50;5093187;28;20225;-76
2023/01/06 07:24:05;;;;;;;3.27;2.73;;;;;;;9.07;100.00;98706.19;5093069;28;20680;-76
2023/01/06 07:26:31;;;;;;;4.50;2.70;;;;;;;9.04;100.00;98714.25;5092035;28;20209;-76
2023/01/06 07:28:58;;;;;;;3.23;2.77;;;;;;;8.99;100.00;98724.22;5092269;28;20213;-77
2023/01/06 07:31:24;;;;;;;3.07;2.07;;;;;;;8.95;100.00;98723.53;5092862;28;20211;-75
2023/01/06 07:33:52;;;;;;;3.83;2.63;;;;;;;8.97;100.00;98726.06;5092535;28;20224;-76
2023/01/06 07:36:18;;;;;;;2.43;2.23;;;;;;;8.98;100.00;98733.03;5092779;28;20219;-76
2023/01/06 07:38:45;;;;;;;3.27;2.03;;;;;;;9.00;100.00;98731.19;5092341;28;20207;-77
2023/01/06 07:41:11;;;;;;;4.20;2.47;;;;;;;8.96;100.00;98734.91;5092354;28;20233;-76
2023/01/06 07:43:38;;;;;;;3.63;2.50;;;;;;;8.96;100.00;98742.81;5092592;28;20229;-76
2023/01/06 07:46:04;;;;;;;2.70;2.50;;;;;;;8.96;100.00;98742.81;5092763;28;20221;-77
2023/01/06 07:48:31;;;;;;;2.77;2.47;;;;;;;8.99;100.00;98747.94;5092679;28;20219;-77
2023/01/06 07:51:02;;;;;;;3.40;2.30;;;;;;;9.01;100.00;98740.78;5092235;28;20213;-76
2023/01/06 07:53:29;;;;;;;2.53;2.33;;;;;;;9.03;100.00;98747.69;5092747;28;20302;-76
2023/01/06 07:55:55;;;;;;;4.40;2.90;;;;;;;9.00;100.00;98752.28;5092974;28;20220;-77
2023/01/06 07:58:23;;;;;;;5.07;2.90;;;;;;;9.00;100.00;98752.28;5092706;28;20210;-76
2023/01/06 08:00:50;;;;;;;3.43;2.70;;;;;;;9.04;100.00;98743.25;5092296;28;20276;-77
2023/01/06 08:03:16;;;;;;;4.73;1.93;;;;;;;9.10;100.00;98764.00;5092416;28;20233;-77
2023/01/06 08:05:43;;;;;;;2.30;2.10;;;;;;;9.02;100.00;98761.81;5092818;28;20214;-77
2023/01/06 08:08:12;;;;;;;2.03;1.83;;;;;;;8.98;100.00;98754.13;5092500;28;20206;-77
2023/01/06 08:10:40;;;;;;;2.40;1.70;;;;;;;8.96;100.00;98753.34;5091884;28;20303;-77
2023/01/06 08:13:06;;;;;;;1.80;1.63;;;;;;;8.84;100.00;98760.13;5092129;28;20234;-78
2023/01/06 08:15:33;;;;;;;3.40;1.40;;;;;;;8.75;100.00;98751.84;5092171;28;20209;-77
2023/01/06 08:17:59;;;;;;;1.47;1.20;;;;;;;8.70;100.00;98749.44;5092287;28;20259;-77
2023/01/06 08:20:26;;;;;;;1.87;1.53;;;;;;;8.69;100.00;98749.53;5091442;28;20255;-77
2023/01/06 08:22:52;;;;;;;1.83;1.40;;;;;;;8.68;100.00;98750.44;5092151;28;20227;-77
2023/01/06 08:25:20;;;;;;;2.90;1.10;;;;;;;8.66;100.00;98747.06;5092352;28;20208;-77
2023/01/06 08:27:46;;;;;;;1.67;1.20;;;;;;;8.65;100.00;98761.16;5092985;28;20609;-77
2023/01/06 08:30:15;;;;;;;2.00;1.10;;;;;;;8.67;100.00;98759.28;5092643;28;20234;-77
2023/01/06 08:32:41;;;;;;;1.47;0.90;;;;;;;8.67;100.00;98764.56;5092875;28;20338;-77
2023/01/06 08:35:08;;;;;;;1.17;0.90;;;;;;;8.66;100.00;98763.72;5093136;28;20214;-77
2023/01/06 08:37:35;;;;;;;2.22;1.40;;;;;;;8.68;100.00;98758.34;5090947;28;20440;-76
2023/01/06 08:40:02;;;;;;;2.03;1.20;;;;;;;8.69;100.00;98760.91;5090900;28;20218;-77
2023/01/06 08:42:30;;;;;;;1.27;1.10;;;;;;;8.71;100.00;98760.84;5091846;28;20231;-77
2023/01/06 08:44:56;;;;;;;1.17;1.00;;;;;;;8.73;100.00;98764.25;5091712;28;20215;-78
2023/01/06 08:47:23;;;;;;;1.90;1.13;;;;;;;8.77;100.00;98763.16;5091731;28;20215;-78
2023/01/06 08:49:49;;;;;;;1.30;0.83;;;;;;;8.79;100.00;98766.56;5091231;28;20303;-78
2023/01/06 08:52:16;;;;;;;1.80;1.13;;;;;;;8.77;100.00;98757.91;5091585;28;20228;-78
2023/01/06 08:54:43;;;;;;;1.50;0.80;;;;;;;8.79;100.00;98764.78;5092140;28;20376;-77
2023/01/06 08:57:10;;;;;;;0.90;0.90;;;;;;;8.80;100.00;98761.22;5091696;28;20203;-78
2023/01/06 08:59:37;;;;;;;2.03;1.00;;;;;;;8.83;100.00;98768.13;5091281;28;20207;-77
2023/01/06 09:02:04;;;;;;;1.53;0.90;;;;;;;8.86;100.00;98768.81;5091332;28;20603;-78
2023/01/06 09:04:30;;;;;;;1.50;0.80;;;;;;;8.89;100.00;98766.03;5091549;28;20206;-77
2023/01/06 09:06:57;;;;;;;0.70;0.70;;;;;;;8.93;100.00;98772.00;5091770;28;20207;-77
2023/01/06 09:09:23;;;;;;;2.53;0.73;;;;;;;8.95;100.00;98778.03;5091187;28;20215;-77
2023/01/06 09:11:50;;;;;;;3.80;0.90;;;;;;;8.96;100.00;98772.69;5091425;28;20214;-77
2023/01/06 09:14:16;;;;;;;3.30;0.90;;;;;;;9.01;100.00;98780.34;5091041;28;20220;-77
2023/01/06 09:16:46;;;;;;;1.93;0.80;;;;;;;9.05;100.00;98780.09;5091444;28;20589;-78
2023/01/06 09:19:13;;;;;;;1.00;0.87;;;;;;;9.08;100.00;98779.94;5087872;28;20211;-78
2023/01/06 09:21:41;;;;;;;1.93;0.80;;;;;;;9.14;100.00;98773.47;5087802;28;20223;-78
2023/01/06 09:24:12;;;;;;;0.70;0.70;;;;;;;9.21;100.00;98766.94;5091094;28;20260;-78
2023/01/06 09:26:38;;;;;;;1.10;0.60;;;;;;;9.25;100.00;98774.59;5090545;28;20210;-78
2023/01/06 09:29:05;;;;;;;0.70;0.70;;;;;;;9.32;100.00;98788.31;5084451;28;20210;-78
2023/01/06 09:31:31;;;;;;;0.97;0.70;;;;;;;9.40;100.00;98778.19;5074948;28;20690;-78
2023/01/06 09:33:59;;;;;;;1.03;0.80;;;;;;;9.48;100.00;98786.56;5069435;28;20228;-78
2023/01/06 09:36:25;;;;;;;1.25;0.70;;;;;;;9.58;100.00;98787.75;5066709;28;20467;-78
2023/01/06 09:38:52;;;;;;;1.37;0.70;;;;;;;9.67;100.00;98792.53;5069531;28;20209;-77
2023/01/06 09:41:38;;;;;;;0.97;0.80;;;;;;;9.78;100.00;98795.44;5071510;28;20590;-77
2023/01/06 09:44:12;;;;;;;0.70;0.70;;;;;;;9.86;100.00;98787.94;5071498;28;20239;-77
2023/01/06 09:46:42;;;;;;;1.13;0.60;;;;;;;9.97;100.00;98786.38;5071053;28;20211;-77
2023/01/06 09:49:24;;;;;;;1.07;0.40;;;;;;;10.11;100.00;98772.44;5070874;28;20220;-77
2023/01/06 09:51:53;;;;;;;1.20;0.60;;;;;;;10.23;100.00;98766.44;5073014;28;20206;-77
2023/01/06 09:54:24;;;;;;;1.53;0.60;;;;;;;10.36;100.00;98773.59;5073408;28;20218;-77
2023/01/06 09:56:56;;;;;;;0.60;0.60;;;;;;;10.41;100.00;98765.38;5074792;28;20218;-77
2023/01/06 09:59:28;;;;;;;0.40;0.40;;;;;;;10.45;100.00;98756.34;5072596;28;20250;-76
2023/01/06 10:01:58;;;;;;;0.50;0.40;;;;;;;10.41;100.00;98744.25;5073377;28;20227;-76
2023/01/06 10:04:28;;;;;;;0.40;0.40;;;;;;;10.43;100.00;98750.28;5075626;28;20222;-77
2023/01/06 10:07:06;;;;;;;0.37;0.33;;;;;;;10.40;100.00;98742.53;5073850;28;20216;-77
2023/01/06 10:09:41;;;;;;;0.40;0.40;;;;;;;10.40;100.00;98729.34;5071556;28;20581;-77
2023/01/06 10:12:21;;;;;;;1.27;0.50;;;;;;;10.37;100.00;98727.72;5074183;28;20208;-77
2023/01/06 10:15:00;;;;;;;1.40;0.37;;;;;;;10.42;100.00;98730.94;5073862;28;20721;-77
2023/01/06 10:17:43;;;;;;;0.50;0.40;;;;;;;10.40;100.00;98718.75;5072146;28;20219;-77
2023/01/06 10:20:35;;;;;;;0.83;0.50;;;;;;;10.41;100.00;98713.38;5074108;28;20203;-77
2023/01/06 10:23:11;;;;;;;0.83;0.50;;;;;;;10.48;100.00;98714.72;5074365;28;20219;-75
2023/01/06 10:25:45;;;;;;;0.60;0.50;;;;;;;10.70;100.00;98707.19;5074986;28;20239;-74
2023/01/06 10:28:19;;;;;;;0.57;0.57;;;;;;;10.70;100.00;98703.72;5074633;28;20223;-75
2023/01/06 10:30:49;;;;;;;1.07;0.50;;;;;;;10.77;100.00;98705.03;5074177;28;20209;-75
2023/01/06 10:33:22;;;;;;;1.03;0.70;;;;;;;10.83;100.00;98700.22;5075074;28;20286;-76
2023/01/06 10:35:51;;;;;;;0.97;0.60;;;;;;;10.91;100.00;98694.47;5085040;28;20210;-75
2023/01/06 10:38:22;;;;;;;0.60;0.60;;;;;;;10.87;100.00;98701.72;5078788;28;20214;-75
2023/01/06 10:40:48;;;;;;;0.77;0.67;;;;;;;11.03;100.00;98702.50;5082375;28;20682;-78
2023/01/06 10:43:15;;;;;;;0.60;0.60;;;;;;;11.15;100.00;98685.00;5079187;28;20226;-78
2023/01/06 10:45:44;;;;;;;0.40;0.40;;;;;;;11.17;100.00;98681.31;5082119;28;20231;-78
2023/01/06 10:48:13;;;;;;;0.50;0.40;;;;;;;11.26;100.00;98679.88;5095902;28;20216;-78
2023/01/06 10:50:40;;;;;;;0.60;0.60;;;;;;;11.35;100.00;98681.94;5094180;28;20215;-78
2023/01/06 10:53:10;;;;;;;1.73;0.70;;;;;;;11.43;100.00;98674.38;5098792;28;20241;-78
2023/01/06 10:55:46;;;;;;;1.00;0.90;;;;;;;11.46;100.00;98663.59;5098357;28;20215;-78
2023/01/06 10:58:25;;;;;;;1.13;0.70;;;;;;;11.45;100.00;98668.03;5098898;28;20212;-78
2023/01/06 11:00:57;;;;;;;0.63;0.60;;;;;;;11.54;100.00;98666.56;5095553;28;20206;-79
2023/01/06 11:03:23;;;;;;;1.03;0.80;;;;;;;11.55;100.00;98663.00;5086912;28;20238;-79
2023/01/06 11:06:00;;;;;;;0.60;0.60;;;;;;;11.63;99.79;98666.03;5087447;28;20204;-79
2023/01/06 11:08:29;;;;;;;0.63;0.60;;;;;;;11.68;99.48;98663.94;5081530;28;20258;-79
2023/01/06 11:10:56;;;;;;;1.40;0.60;;;;;;;11.71;99.02;98658.44;5083902;28;20218;-78
2023/01/06 11:13:26;;;;;;;0.63;0.50;;;;;;;11.73;99.79;98669.78;5085412;28;20262;-78
2023/01/06 11:15:54;;;;;;;0.70;0.70;;;;;;;11.74;99.94;98666.19;5096294;28;20197;-78
2023/01/06 11:18:24;;;;;;;0.50;0.50;;;;;;;11.77;99.44;98660.66;5097669;28;20203;-78
2023/01/06 11:21:09;;;;;;;0.50;0.50;;;;;;;11.65;98.89;98659.69;5090172;28;20198;-78
2023/01/06 11:23:39;;;;;;;0.60;0.60;;;;;;;11.63;100.00;98666.84;5084735;28;20255;-78
2023/01/06 11:26:15;;;;;;;0.60;0.60;;;;;;;11.68;100.00;98669.22;5076532;28;20547;-78
2023/01/06 11:28:43;;;;;;;0.73;0.67;;;;;;;11.60;98.86;98650.31;5077204;28;20715;-78
2023/01/06 11:31:19;;;;;;;0.90;0.60;;;;;;;11.57;98.97;98650.50;5076420;28;20295;-78
2023/01/06 11:33:56;;;;;;;0.60;0.60;;;;;;;11.63;97.30;98637.75;5077220;28;20238;-78
2023/01/06 11:36:25;;;;;;;1.73;0.67;;;;;;;11.63;97.40;98639.56;5077787;28;20195;-78
2023/01/06 11:38:57;;;;;;;0.90;0.80;;;;;;;11.66;98.98;98647.28;5075938;28;20298;-78
2023/01/06 11:41:28;;;;;;;0.60;0.60;;;;;;;11.70;98.06;98651.44;5076316;28;20223;-78
2023/01/06 11:43:57;;;;;;;0.60;0.53;;;;;;;11.65;97.63;98643.81;5074146;28;20237;-77
2023/01/06 11:46:25;;;;;;;0.67;0.67;;;;;;;11.74;97.49;98645.84;5076170;28;20237;-77
2023/01/06 11:49:00;;;;;;;0.70;0.70;;;;;;;11.78;96.38;98643.81;5076179;28;20236;-79